Time,TemperatureF,DewpointF,PressureIn,WindDirection,WindDirectionDegrees,WindSpeedMPH,WindSpeedGustMPH,Humidity,HourlyPrecipIn,Conditions,Clouds,dailyrainin,SoftwareType,DateUTC
2013-02-05 00:00:00,14.8,11.4,29.70,SSW,203,15.0,17.4,86,0.00,,,0.00,WUHU216HW,2013-02-05 06:00:00,
2013-02-05 00:05:00,15.1,11.6,29.70,South,180,14.8,17.4,86,0.00,,,0.00,WUHU216HW,2013-02-05 06:05:00,
2013-02-05 00:10:00,15.7,12.2,29.69,South,180,18.6,18.6,86,0.00,,,0.00,WUHU216HW,2013-02-05 06:10:00,
2013-02-05 00:15:00,16.2,12.9,29.69,SSW,203,15.0,20.4,87,0.00,,,0.00,WUHU216HW,2013-02-05 06:15:00,
2013-02-05 00:20:00,16.7,13.4,29.68,SSW,203,15.7,20.4,87,0.00,,,0.00,WUHU216HW,2013-02-05 06:20:00,
2013-02-05 00:25:00,16.9,13.6,29.68,SSW,203,13.6,17.7,87,0.00,,,0.00,WUHU216HW,2013-02-05 06:25:00,
2013-02-05 00:31:00,17.3,13.7,29.68,South,180,18.8,18.8,86,0.00,,,0.00,WUHU216HW,2013-02-05 06:31:00,
2013-02-05 00:36:00,17.6,14.0,29.68,South,180,13.0,18.8,86,0.00,,,0.00,WUHU216HW,2013-02-05 06:36:00,
2013-02-05 00:41:00,18.0,14.4,29.67,South,180,19.2,19.2,86,0.00,,,0.00,WUHU216HW,2013-02-05 06:41:00,
2013-02-05 00:46:00,18.4,14.5,29.68,SSW,203,13.4,19.2,85,0.00,,,0.00,WUHU216HW,2013-02-05 06:46:00,
2013-02-05 00:51:00,18.5,14.7,29.68,SSW,203,12.5,17.2,85,0.00,,,0.00,WUHU216HW,2013-02-05 06:51:00,
2013-02-05 00:56:00,18.7,14.6,29.67,SSW,203,16.6,16.6,84,0.00,,,0.00,WUHU216HW,2013-02-05 06:56:00,
2013-02-05 01:01:00,19.1,14.9,29.67,SSW,203,16.3,16.6,84,0.00,,,0.00,WUHU216HW,2013-02-05 07:01:00,
2013-02-05 01:06:00,19.3,15.1,29.67,SSW,203,18.6,18.6,84,0.00,,,0.00,WUHU216HW,2013-02-05 07:06:00,
2013-02-05 01:11:00,19.6,15.5,29.66,SSW,203,14.5,20.1,84,0.00,,,0.00,WUHU216HW,2013-02-05 07:11:00,
2013-02-05 01:16:00,19.8,15.7,29.66,SSW,203,17.7,20.8,84,0.00,,,0.00,WUHU216HW,2013-02-05 07:16:00,
2013-02-05 01:21:00,19.8,15.7,29.66,SSW,203,17.7,20.8,84,0.00,,,0.00,WUHU216HW,2013-02-05 07:21:00,
2013-02-05 01:45:00,20.5,16.1,29.65,SSW,203,16.8,16.8,83,0.00,,,0.00,WUHU216HW,2013-02-05 07:45:00,
2013-02-05 01:50:00,20.5,16.4,29.65,SSW,203,17.4,17.4,84,0.00,,,0.00,WUHU216HW,2013-02-05 07:50:00,
2013-02-05 01:55:00,20.7,16.6,29.66,SW,225,16.1,17.4,84,0.00,,,0.00,WUHU216HW,2013-02-05 07:55:00,
2013-02-05 02:00:00,20.9,16.7,29.65,SSW,203,13.0,16.6,84,0.00,,,0.00,WUHU216HW,2013-02-05 08:00:00,
2013-02-05 02:05:00,20.9,16.7,29.65,SSW,203,14.5,16.3,84,0.00,,,0.00,WUHU216HW,2013-02-05 08:05:00,
2013-02-05 02:10:00,20.5,16.1,29.66,SSW,203,11.0,16.3,83,0.00,,,0.00,WUHU216HW,2013-02-05 08:10:00,
2013-02-05 02:15:00,20.5,16.1,29.65,SSW,203,15.2,17.2,83,0.00,,,0.00,WUHU216HW,2013-02-05 08:15:00,
2013-02-05 02:20:00,20.5,16.1,29.65,SSW,203,14.3,17.2,83,0.00,,,0.00,WUHU216HW,2013-02-05 08:20:00,
2013-02-05 02:25:00,20.5,16.4,29.65,SSW,203,17.7,17.7,84,0.00,,,0.00,WUHU216HW,2013-02-05 08:25:00,
2013-02-05 02:30:00,20.5,16.4,29.65,SSW,203,15.9,17.7,84,0.00,,,0.00,WUHU216HW,2013-02-05 08:30:00,
2013-02-05 02:35:00,20.5,16.1,29.64,SSW,203,13.9,15.9,83,0.00,,,0.00,WUHU216HW,2013-02-05 08:35:00,
2013-02-05 02:40:00,20.5,16.4,29.64,SSW,203,11.6,15.4,84,0.00,,,0.00,WUHU216HW,2013-02-05 08:40:00,
2013-02-05 02:45:00,20.5,16.4,29.64,SSW,203,12.3,15.4,84,0.00,,,0.00,WUHU216HW,2013-02-05 08:45:00,
2013-02-05 02:50:00,20.3,15.9,29.64,SSW,203,11.4,13.9,83,0.00,,,0.00,WUHU216HW,2013-02-05 08:50:00,
2013-02-05 02:55:00,20.0,15.8,29.64,SSW,203,12.5,13.0,84,0.00,,,0.00,WUHU216HW,2013-02-05 08:55:00,
2013-02-05 03:00:00,20.2,16.0,29.64,SW,225,13.4,13.4,84,0.00,,,0.00,WUHU216HW,2013-02-05 09:00:00,
2013-02-05 03:05:00,20.5,16.4,29.64,SW,225,11.0,14.8,84,0.00,,,0.00,WUHU216HW,2013-02-05 09:05:00,
2013-02-05 03:10:00,20.3,16.2,29.63,SW,225,13.2,14.8,84,0.00,,,0.00,WUHU216HW,2013-02-05 09:10:00,
2013-02-05 03:15:00,20.5,16.1,29.63,SSW,203,11.2,13.4,83,0.00,,,0.00,WUHU216HW,2013-02-05 09:15:00,
2013-02-05 03:20:00,20.2,16.0,29.63,SSW,203,12.8,13.4,84,0.00,,,0.00,WUHU216HW,2013-02-05 09:20:00,
2013-02-05 03:25:00,20.2,16.0,29.63,SSW,203,12.1,12.8,84,0.00,,,0.00,WUHU216HW,2013-02-05 09:25:00,
2013-02-05 03:30:00,20.2,16.0,29.62,SSW,203,11.2,14.1,84,0.00,,,0.00,WUHU216HW,2013-02-05 09:30:00,
2013-02-05 03:35:00,20.2,16.0,29.63,SW,225,11.4,14.1,84,0.00,,,0.00,WUHU216HW,2013-02-05 09:35:00,
2013-02-05 03:40:00,20.3,16.2,29.63,SW,225,12.1,12.1,84,0.00,,,0.00,WUHU216HW,2013-02-05 09:40:00,
2013-02-05 03:45:00,20.5,16.4,29.63,SW,225,13.4,13.4,84,0.00,,,0.00,WUHU216HW,2013-02-05 09:45:00,
2013-02-05 03:50:00,21.1,17.2,29.63,SW,225,12.8,14.1,85,0.00,,,0.00,WUHU216HW,2013-02-05 09:50:00,
2013-02-05 03:55:00,21.1,17.2,29.63,SW,225,11.6,14.1,85,0.00,,,0.00,WUHU216HW,2013-02-05 09:55:00,
2013-02-05 04:00:00,21.2,17.4,29.63,SW,225,12.5,15.4,85,0.00,,,0.00,WUHU216HW,2013-02-05 10:00:00,
2013-02-05 04:05:00,21.2,17.4,29.62,SW,225,10.5,15.4,85,0.00,,,0.00,WUHU216HW,2013-02-05 10:05:00,
2013-02-05 04:10:00,21.2,17.4,29.62,SW,225,12.1,14.5,85,0.00,,,0.00,WUHU216HW,2013-02-05 10:10:00,
2013-02-05 04:15:00,21.4,17.6,29.62,SW,225,10.7,14.5,85,0.00,,,0.00,WUHU216HW,2013-02-05 10:15:00,
2013-02-05 04:20:00,21.6,17.7,29.62,SW,225,10.5,12.8,85,0.00,,,0.00,WUHU216HW,2013-02-05 10:20:00,
2013-02-05 04:25:00,22.0,18.1,29.63,SW,225,9.8,11.2,85,0.00,,,0.00,WUHU216HW,2013-02-05 10:25:00,
2013-02-05 04:30:00,22.0,18.1,29.63,SW,225,9.2,10.7,85,0.00,,,0.00,WUHU216HW,2013-02-05 10:30:00,
2013-02-05 04:35:00,22.1,18.3,29.62,SSW,203,9.4,11.4,85,0.00,,,0.00,WUHU216HW,2013-02-05 10:35:00,
2013-02-05 04:40:00,22.3,18.5,29.62,SW,225,9.2,11.4,85,0.00,,,0.00,WUHU216HW,2013-02-05 10:40:00,
2013-02-05 04:45:00,22.5,18.6,29.62,SW,225,8.5,11.0,85,0.00,,,0.00,WUHU216HW,2013-02-05 10:45:00,
2013-02-05 04:50:00,22.5,18.6,29.62,SW,225,10.1,12.1,85,0.00,,,0.00,WUHU216HW,2013-02-05 10:50:00,
2013-02-05 04:55:00,22.7,18.8,29.61,SW,225,9.4,12.1,85,0.00,,,0.00,WUHU216HW,2013-02-05 10:55:00,
2013-02-05 05:00:00,22.7,19.1,29.61,SW,225,7.8,11.4,86,0.00,,,0.00,WUHU216HW,2013-02-05 11:00:00,
2013-02-05 05:05:00,22.7,19.1,29.62,SW,225,10.3,13.0,86,0.00,,,0.00,WUHU216HW,2013-02-05 11:05:00,
2013-02-05 05:10:00,22.9,19.5,29.62,SW,225,9.2,13.0,87,0.00,,,0.00,WUHU216HW,2013-02-05 11:10:00,
2013-02-05 05:15:00,22.7,19.4,29.62,WSW,248,8.7,11.6,87,0.00,,,0.00,WUHU216HW,2013-02-05 11:15:00,
2013-02-05 05:20:00,22.7,19.6,29.62,SW,225,6.7,10.3,88,0.00,,,0.00,WUHU216HW,2013-02-05 11:20:00,
2013-02-05 05:25:00,22.7,19.9,29.62,WSW,248,7.4,9.4,89,0.00,,,0.00,WUHU216HW,2013-02-05 11:25:00,
2013-02-05 05:30:00,22.7,20.2,29.62,SW,225,9.6,9.6,90,0.00,,,0.00,WUHU216HW,2013-02-05 11:30:00,
2013-02-05 05:35:00,22.7,20.2,29.62,SW,225,7.2,9.6,90,0.00,,,0.00,WUHU216HW,2013-02-05 11:35:00,
2013-02-05 05:40:00,22.7,20.2,29.61,SW,225,8.7,9.2,90,0.00,,,0.00,WUHU216HW,2013-02-05 11:40:00,
2013-02-05 05:45:00,22.7,20.2,29.61,SW,225,6.7,8.7,90,0.00,,,0.00,WUHU216HW,2013-02-05 11:45:00,
2013-02-05 05:50:00,22.9,20.3,29.62,WSW,248,6.3,9.6,90,0.00,,,0.00,WUHU216HW,2013-02-05 11:50:00,
2013-02-05 05:55:00,22.9,20.3,29.61,SW,225,9.2,9.6,90,0.00,,,0.00,WUHU216HW,2013-02-05 11:55:00,
2013-02-05 06:00:00,22.9,20.3,29.61,SW,225,8.5,10.5,90,0.00,,,0.00,WUHU216HW,2013-02-05 12:00:00,
2013-02-05 06:05:00,23.0,20.8,29.62,WSW,248,10.1,11.0,91,0.00,,,0.00,WUHU216HW,2013-02-05 12:05:00,
2013-02-05 06:10:00,23.2,21.0,29.62,WSW,248,12.1,12.1,91,0.00,,,0.00,WUHU216HW,2013-02-05 12:10:00,
2013-02-05 06:15:00,23.2,21.0,29.62,WSW,248,9.2,12.1,91,0.00,,,0.00,WUHU216HW,2013-02-05 12:15:00,
2013-02-05 06:20:00,23.2,20.7,29.63,WSW,248,8.7,11.4,90,0.00,,,0.00,WUHU216HW,2013-02-05 12:20:00,
2013-02-05 06:25:00,23.2,20.7,29.63,SW,225,6.0,10.3,90,0.00,,,0.00,WUHU216HW,2013-02-05 12:25:00,
2013-02-05 06:30:00,23.2,21.0,29.63,WSW,248,9.2,10.1,91,0.00,,,0.00,WUHU216HW,2013-02-05 12:30:00,
2013-02-05 06:35:00,23.4,21.2,29.63,West,270,9.2,10.1,91,0.00,,,0.00,WUHU216HW,2013-02-05 12:35:00,
2013-02-05 06:40:00,23.6,21.3,29.63,WSW,248,10.1,13.4,91,0.00,,,0.00,WUHU216HW,2013-02-05 12:40:00,
2013-02-05 06:45:00,23.6,21.1,29.64,WSW,248,6.9,13.4,90,0.00,,,0.00,WUHU216HW,2013-02-05 12:45:00,
2013-02-05 06:50:00,23.6,21.3,29.64,WSW,248,7.6,9.6,91,0.00,,,0.00,WUHU216HW,2013-02-05 12:50:00,
2013-02-05 06:55:00,23.8,21.5,29.65,WSW,248,7.4,9.6,91,0.00,,,0.00,WUHU216HW,2013-02-05 12:55:00,
2013-02-05 07:00:00,23.8,21.5,29.65,WSW,248,8.9,8.9,91,0.00,,,0.00,WUHU216HW,2013-02-05 13:00:00,
2013-02-05 07:05:00,23.8,21.5,29.65,West,270,9.8,9.8,91,0.00,,,0.00,WUHU216HW,2013-02-05 13:05:00,
2013-02-05 07:10:00,23.9,21.7,29.66,WSW,248,6.9,9.8,91,0.00,,,0.00,WUHU216HW,2013-02-05 13:10:00,
2013-02-05 07:15:00,24.1,21.9,29.66,WSW,248,6.9,8.5,91,0.00,,,0.00,WUHU216HW,2013-02-05 13:15:00,
2013-02-05 07:20:00,24.1,21.9,29.66,WSW,248,6.3,7.4,91,0.00,,,0.00,WUHU216HW,2013-02-05 13:20:00,
2013-02-05 07:25:00,24.1,21.9,29.66,WSW,248,5.4,6.7,91,0.00,,,0.00,WUHU216HW,2013-02-05 13:25:00,
2013-02-05 07:30:00,23.9,21.7,29.66,WSW,248,6.0,7.4,91,0.00,,,0.00,WUHU216HW,2013-02-05 13:30:00,
2013-02-05 07:35:00,23.9,21.7,29.66,WSW,248,6.3,7.4,91,0.00,,,0.00,WUHU216HW,2013-02-05 13:35:00,
2013-02-05 07:40:00,23.8,21.2,29.66,WSW,248,5.8,7.2,90,0.00,,,0.00,WUHU216HW,2013-02-05 13:40:00,
2013-02-05 07:45:00,23.8,21.5,29.67,WSW,248,4.9,6.3,91,0.00,,,0.00,WUHU216HW,2013-02-05 13:45:00,
2013-02-05 07:50:00,24.1,21.9,29.67,WSW,248,5.1,6.3,91,0.00,,,0.00,WUHU216HW,2013-02-05 13:50:00,
2013-02-05 07:55:00,24.1,21.9,29.67,West,270,4.3,6.3,91,0.00,,,0.00,WUHU216HW,2013-02-05 13:55:00,
2013-02-05 08:00:00,24.3,22.1,29.67,WSW,248,3.4,6.3,91,0.00,,,0.00,WUHU216HW,2013-02-05 14:00:00,
2013-02-05 08:05:00,24.3,22.1,29.67,West,270,4.0,4.3,91,0.00,,,0.00,WUHU216HW,2013-02-05 14:05:00,
2013-02-05 08:09:00,24.7,22.4,29.67,West,270,4.0,4.7,91,0.00,,,0.00,WUHU216HW,2013-02-05 14:09:00,
2013-02-05 08:14:00,24.5,22.2,29.68,West,270,4.3,4.7,91,0.00,,,0.00,WUHU216HW,2013-02-05 14:14:00,
2013-02-05 08:19:00,24.7,22.1,29.68,NW,315,2.5,4.7,90,0.00,,,0.00,WUHU216HW,2013-02-05 14:19:00,
2013-02-05 08:24:00,24.7,22.1,29.68,NNW,338,2.7,4.7,90,0.00,,,0.00,WUHU216HW,2013-02-05 14:24:00,
2013-02-05 08:29:00,25.6,23.3,29.69,NW,315,9.6,9.6,91,0.00,,,0.00,WUHU216HW,2013-02-05 14:29:00,
2013-02-05 08:34:00,26.3,24.0,29.69,WNW,293,7.2,9.6,91,0.00,,,0.00,WUHU216HW,2013-02-05 14:34:00,
2013-02-05 08:39:00,27.0,24.8,29.69,NNE,23,4.9,13.6,91,0.00,,,0.00,WUHU216HW,2013-02-05 14:39:00,
2013-02-05 08:44:00,27.4,24.8,29.69,NNW,338,6.3,13.6,90,0.00,,,0.00,WUHU216HW,2013-02-05 14:44:00,
2013-02-05 08:49:00,27.5,24.8,29.70,WNW,293,8.7,8.9,89,0.00,,,0.00,WUHU216HW,2013-02-05 14:49:00,
2013-02-05 08:54:00,27.7,24.7,29.70,WNW,293,7.8,11.2,88,0.00,,,0.00,WUHU216HW,2013-02-05 14:54:00,
2013-02-05 08:59:00,27.7,24.3,29.70,NNE,23,6.9,11.2,87,0.00,,,0.00,WUHU216HW,2013-02-05 14:59:00,
2013-02-05 09:04:00,27.7,24.0,29.71,North,0,5.8,9.6,86,0.00,,,0.00,WUHU216HW,2013-02-05 15:04:00,
2013-02-05 09:09:00,27.7,24.0,29.71,NW,315,5.8,8.5,86,0.00,,,0.00,WUHU216HW,2013-02-05 15:09:00,
2013-02-05 09:14:00,27.9,23.9,29.71,WNW,293,4.5,7.4,85,0.00,,,0.00,WUHU216HW,2013-02-05 15:14:00,
2013-02-05 09:19:00,28.1,24.1,29.71,NNE,23,2.7,7.4,85,0.00,,,0.00,WUHU216HW,2013-02-05 15:19:00,
2013-02-05 09:24:00,28.3,24.6,29.72,North,0,4.5,5.8,86,0.00,,,0.00,WUHU216HW,2013-02-05 15:24:00,
2013-02-05 09:29:00,28.3,24.3,29.72,North,0,5.4,5.8,85,0.00,,,0.00,WUHU216HW,2013-02-05 15:29:00,
2013-02-05 09:34:00,28.4,24.5,29.72,NNW,338,7.4,7.4,85,0.00,,,0.00,WUHU216HW,2013-02-05 15:34:00,
2013-02-05 09:39:00,28.4,24.2,29.72,NNW,338,6.3,7.4,84,0.00,,,0.00,WUHU216HW,2013-02-05 15:39:00,
2013-02-05 09:44:00,28.4,24.2,29.72,NNW,338,6.9,7.4,84,0.00,,,0.00,WUHU216HW,2013-02-05 15:44:00,
2013-02-05 09:49:00,28.6,24.1,29.73,NNW,338,4.0,6.9,83,0.00,,,0.00,WUHU216HW,2013-02-05 15:49:00,
2013-02-05 09:54:00,28.8,24.3,29.73,North,0,5.1,6.7,83,0.00,,,0.00,WUHU216HW,2013-02-05 15:54:00,
2013-02-05 09:59:00,28.8,24.3,29.74,NNW,338,4.0,6.0,83,0.00,,,0.00,WUHU216HW,2013-02-05 15:59:00,
2013-02-05 10:04:00,29.0,24.5,29.74,NW,315,4.7,5.8,83,0.00,,,0.00,WUHU216HW,2013-02-05 16:04:00,
2013-02-05 10:09:00,29.2,24.3,29.74,WNW,293,4.0,5.8,82,0.00,,,0.00,WUHU216HW,2013-02-05 16:09:00,
2013-02-05 10:14:00,29.2,24.3,29.74,NNW,338,4.0,5.8,82,0.00,,,0.00,WUHU216HW,2013-02-05 16:14:00,
2013-02-05 10:19:00,29.2,24.0,29.75,NNE,23,5.8,7.4,81,0.00,,,0.00,WUHU216HW,2013-02-05 16:19:00,
2013-02-05 10:24:00,29.2,24.0,29.75,NNW,338,6.3,8.9,81,0.00,,,0.00,WUHU216HW,2013-02-05 16:24:00,
2013-02-05 10:29:00,29.2,24.0,29.76,North,0,6.9,8.9,81,0.00,,,0.00,WUHU216HW,2013-02-05 16:29:00,
2013-02-05 10:34:00,29.2,23.8,29.76,ENE,68,8.3,8.3,80,0.00,,,0.00,WUHU216HW,2013-02-05 16:34:00,
2013-02-05 10:39:00,29.2,23.5,29.76,NNW,338,7.8,8.3,79,0.00,,,0.00,WUHU216HW,2013-02-05 16:39:00,
2013-02-05 10:44:00,29.2,23.5,29.77,NNW,338,8.5,11.2,79,0.00,,,0.00,WUHU216HW,2013-02-05 16:44:00,
2013-02-05 10:49:00,29.2,23.1,29.77,NNW,338,7.4,11.2,78,0.00,,,0.00,WUHU216HW,2013-02-05 16:49:00,
2013-02-05 10:54:00,29.2,22.9,29.78,NW,315,7.6,8.7,77,0.00,,,0.00,WUHU216HW,2013-02-05 16:54:00,
2013-02-05 10:59:00,29.2,22.9,29.78,NW,315,5.1,7.6,77,0.00,,,0.00,WUHU216HW,2013-02-05 16:59:00,
2013-02-05 11:04:00,29.2,22.9,29.78,NW,315,7.8,10.5,77,0.00,,,0.00,WUHU216HW,2013-02-05 17:04:00,
2013-02-05 11:09:00,29.5,22.9,29.79,NNW,338,10.5,10.5,76,0.00,,,0.00,WUHU216HW,2013-02-05 17:09:00,
2013-02-05 11:14:00,29.5,22.9,29.79,NNW,338,10.5,10.5,76,0.00,,,0.00,WUHU216HW,2013-02-05 17:14:00,
2013-02-05 11:37:00,29.7,22.7,29.79,NW,315,8.1,8.1,75,0.00,,,0.00,WUHU216HW,2013-02-05 17:37:00,
2013-02-05 11:42:00,29.9,22.9,29.79,North,0,7.6,8.1,75,0.00,,,0.00,WUHU216HW,2013-02-05 17:42:00,
2013-02-05 11:47:00,29.9,22.9,29.79,North,0,4.0,9.8,75,0.00,,,0.00,WUHU216HW,2013-02-05 17:47:00,
2013-02-05 11:52:00,29.9,23.2,29.79,North,0,8.9,9.8,76,0.00,,,0.00,WUHU216HW,2013-02-05 17:52:00,
2013-02-05 11:57:00,30.4,23.4,29.79,NNW,338,8.1,9.6,75,0.00,,,0.00,WUHU216HW,2013-02-05 17:57:00,
2013-02-05 12:02:00,30.6,23.6,29.80,North,0,4.7,8.1,75,0.00,,,0.00,WUHU216HW,2013-02-05 18:02:00,
2013-02-05 12:07:00,30.6,23.2,29.80,North,0,6.5,9.4,74,0.00,,,0.00,WUHU216HW,2013-02-05 18:07:00,
2013-02-05 12:12:00,30.2,22.9,29.80,NW,315,7.2,9.4,74,0.00,,,0.00,WUHU216HW,2013-02-05 18:12:00,
2013-02-05 12:17:00,30.2,23.2,29.80,NNW,338,6.5,9.2,75,0.00,,,0.00,WUHU216HW,2013-02-05 18:17:00,
2013-02-05 12:22:00,30.2,23.2,29.80,NNE,23,6.9,8.5,75,0.00,,,0.00,WUHU216HW,2013-02-05 18:22:00,
2013-02-05 12:27:00,30.1,23.4,29.81,NNE,23,7.2,8.5,76,0.00,,,0.00,WUHU216HW,2013-02-05 18:27:00,
2013-02-05 12:32:00,29.9,23.2,29.81,North,0,11.4,11.9,76,0.00,,,0.00,WUHU216HW,2013-02-05 18:32:00,
2013-02-05 12:37:00,30.1,23.4,29.81,North,0,5.4,12.1,76,0.00,,,0.00,WUHU216HW,2013-02-05 18:37:00,
2013-02-05 12:42:00,30.4,23.4,29.82,North,0,6.3,12.1,75,0.00,,,0.00,WUHU216HW,2013-02-05 18:42:00,
2013-02-05 12:47:00,30.6,23.0,29.82,North,0,11.4,11.4,73,0.00,,,0.00,WUHU216HW,2013-02-05 18:47:00,
2013-02-05 12:52:00,30.6,22.3,29.82,North,0,7.6,12.8,71,0.00,,,0.00,WUHU216HW,2013-02-05 18:52:00,
2013-02-05 12:57:00,30.6,22.3,29.82,NNW,338,9.8,13.4,71,0.00,,,0.00,WUHU216HW,2013-02-05 18:57:00,
2013-02-05 13:02:00,30.2,22.0,29.82,North,0,9.2,14.5,71,0.00,,,0.00,WUHU216HW,2013-02-05 19:02:00,
2013-02-05 13:07:00,30.4,22.2,29.83,NW,315,11.6,15.0,71,0.00,,,0.00,WUHU216HW,2013-02-05 19:07:00,
2013-02-05 13:12:00,31.9,22.9,29.83,NW,315,8.3,15.0,69,0.00,,,0.00,WUHU216HW,2013-02-05 19:12:00,
2013-02-05 13:17:00,34.6,24.3,29.83,NNW,338,6.9,10.1,66,0.00,,,0.00,WUHU216HW,2013-02-05 19:17:00,
2013-02-05 13:21:00,35.6,23.2,29.83,North,0,11.4,13.4,60,0.00,,,0.00,WUHU216HW,2013-02-05 19:21:00,
2013-02-05 13:26:00,36.4,23.4,29.84,NNW,338,7.6,13.4,59,0.00,,,0.00,WUHU216HW,2013-02-05 19:26:00,
2013-02-05 13:31:00,35.8,23.0,29.84,North,0,13.4,13.4,59,0.00,,,0.00,WUHU216HW,2013-02-05 19:31:00,
2013-02-05 13:36:00,34.7,21.1,29.84,NNW,338,8.7,13.4,57,0.00,,,0.00,WUHU216HW,2013-02-05 19:36:00,
2013-02-05 13:41:00,36.2,22.0,29.84,NNW,338,7.6,12.5,56,0.00,,,0.00,WUHU216HW,2013-02-05 19:41:00,
2013-02-05 13:46:00,35.8,21.7,29.84,NW,315,12.8,12.8,56,0.00,,,0.00,WUHU216HW,2013-02-05 19:46:00,
2013-02-05 13:51:00,35.1,21.0,29.84,NNW,338,8.7,12.8,56,0.00,,,0.00,WUHU216HW,2013-02-05 19:51:00,
2013-02-05 13:56:00,34.6,20.4,29.85,North,0,7.6,11.2,56,0.00,,,0.00,WUHU216HW,2013-02-05 19:56:00,
2013-02-05 14:01:00,33.5,20.3,29.86,NNW,338,11.4,11.4,58,0.00,,,0.00,WUHU216HW,2013-02-05 20:01:00,
2013-02-05 14:06:00,33.7,20.4,29.86,North,0,5.8,12.1,58,0.00,,,0.00,WUHU216HW,2013-02-05 20:06:00,
2013-02-05 14:11:00,33.5,20.3,29.86,NNW,338,10.3,12.1,58,0.00,,,0.00,WUHU216HW,2013-02-05 20:11:00,
2013-02-05 14:16:00,34.6,20.9,29.87,NW,315,9.2,11.6,57,0.00,,,0.00,WUHU216HW,2013-02-05 20:16:00,
2013-02-05 14:21:00,35.8,21.3,29.87,NW,315,6.3,11.6,55,0.00,,,0.00,WUHU216HW,2013-02-05 20:21:00,
2013-02-05 14:26:00,35.8,20.8,29.87,North,0,7.6,12.3,54,0.00,,,0.00,WUHU216HW,2013-02-05 20:26:00,
2013-02-05 14:31:00,35.8,21.3,29.87,NW,315,12.1,12.3,55,0.00,,,0.00,WUHU216HW,2013-02-05 20:31:00,
2013-02-05 14:36:00,36.5,21.4,29.87,North,0,13.2,14.8,54,0.00,,,0.00,WUHU216HW,2013-02-05 20:36:00,
2013-02-05 14:41:00,35.6,20.2,29.87,NNW,338,8.5,14.8,53,0.00,,,0.00,WUHU216HW,2013-02-05 20:41:00,
2013-02-05 14:46:00,34.9,19.9,29.87,NNW,338,9.6,14.1,54,0.00,,,0.00,WUHU216HW,2013-02-05 20:46:00,
2013-02-05 14:51:00,34.7,19.7,29.88,North,0,8.3,11.2,54,0.00,,,0.00,WUHU216HW,2013-02-05 20:51:00,
2013-02-05 14:56:00,35.5,20.0,29.88,NNW,338,5.4,10.7,53,0.00,,,0.00,WUHU216HW,2013-02-05 20:56:00,
2013-02-05 15:01:00,36.4,20.0,29.88,NE,45,6.5,9.2,51,0.00,,,0.00,WUHU216HW,2013-02-05 21:01:00,
2013-02-05 15:06:00,37.3,20.8,29.88,NW,315,6.9,9.2,51,0.00,,,0.00,WUHU216HW,2013-02-05 21:06:00,
2013-02-05 15:11:00,37.6,19.6,29.88,NW,315,7.6,7.6,48,0.00,,,0.00,WUHU216HW,2013-02-05 21:11:00,
2013-02-05 15:16:00,36.9,18.5,29.88,North,0,4.7,7.6,47,0.00,,,0.00,WUHU216HW,2013-02-05 21:16:00,
2013-02-05 15:21:00,37.1,19.2,29.89,NNW,338,7.2,7.4,48,0.00,,,0.00,WUHU216HW,2013-02-05 21:21:00,
2013-02-05 15:26:00,37.1,19.2,29.89,North,0,7.6,7.6,48,0.00,,,0.00,WUHU216HW,2013-02-05 21:26:00,
2013-02-05 15:31:00,37.3,18.8,29.89,North,0,6.3,7.6,47,0.00,,,0.00,WUHU216HW,2013-02-05 21:31:00,
2013-02-05 15:36:00,36.7,17.8,29.89,NW,315,7.6,8.5,46,0.00,,,0.00,WUHU216HW,2013-02-05 21:36:00,
2013-02-05 15:41:00,35.6,17.8,29.89,NNW,338,4.5,8.5,48,0.00,,,0.00,WUHU216HW,2013-02-05 21:41:00,
2013-02-05 15:46:00,36.0,18.2,29.90,NNW,338,8.1,8.1,48,0.00,,,0.00,WUHU216HW,2013-02-05 21:46:00,
2013-02-05 15:51:00,36.0,17.6,29.90,North,0,7.2,8.1,47,0.00,,,0.00,WUHU216HW,2013-02-05 21:51:00,
2013-02-05 15:56:00,34.9,17.2,29.90,North,0,7.6,10.7,48,0.00,,,0.00,WUHU216HW,2013-02-05 21:56:00,
2013-02-05 16:01:00,34.2,17.5,29.90,NNW,338,6.7,10.7,50,0.00,,,0.00,WUHU216HW,2013-02-05 22:01:00,
2013-02-05 16:06:00,34.2,16.9,29.91,WNW,293,9.4,9.4,49,0.00,,,0.00,WUHU216HW,2013-02-05 22:06:00,
2013-02-05 16:11:00,33.5,16.7,29.91,NW,315,3.6,9.4,50,0.00,,,0.00,WUHU216HW,2013-02-05 22:11:00,
2013-02-05 16:16:00,33.7,16.9,29.91,North,0,11.2,12.1,50,0.00,,,0.00,WUHU216HW,2013-02-05 22:16:00,
2013-02-05 16:21:00,32.9,16.3,29.92,NW,315,4.3,12.1,50,0.00,,,0.00,WUHU216HW,2013-02-05 22:21:00,
2013-02-05 16:26:00,32.6,15.9,29.92,NNW,338,6.3,11.4,50,0.00,,,0.00,WUHU216HW,2013-02-05 22:26:00,
2013-02-05 16:31:00,32.6,15.9,29.92,NNW,338,6.3,6.9,50,0.00,,,0.00,WUHU216HW,2013-02-05 22:31:00,
2013-02-05 16:53:00,31.1,15.1,29.92,NNW,338,6.5,6.5,51,0.00,,,0.00,WUHU216HW,2013-02-05 22:53:00,
2013-02-05 16:58:00,30.8,14.8,29.92,NW,315,5.6,6.5,51,0.00,,,0.00,WUHU216HW,2013-02-05 22:58:00,
2013-02-05 17:03:00,29.2,13.7,29.93,NW,315,8.1,11.2,52,0.00,,,0.00,WUHU216HW,2013-02-05 23:03:00,
2013-02-05 17:08:00,28.4,13.9,29.93,NW,315,5.4,11.2,54,0.00,,,0.00,WUHU216HW,2013-02-05 23:08:00,
2013-02-05 17:13:00,27.4,13.2,29.93,North,0,3.8,9.2,55,0.00,,,0.00,WUHU216HW,2013-02-05 23:13:00,
2013-02-05 17:18:00,27.0,13.3,29.94,NNW,338,4.9,9.2,56,0.00,,,0.00,WUHU216HW,2013-02-05 23:18:00,
2013-02-05 17:23:00,27.0,13.3,29.94,NNW,338,2.0,4.9,56,0.00,,,0.00,WUHU216HW,2013-02-05 23:23:00,
2013-02-05 17:28:00,26.5,12.8,29.94,NW,315,3.8,4.3,56,0.00,,,0.00,WUHU216HW,2013-02-05 23:28:00,
2013-02-05 17:33:00,26.1,12.9,29.94,NW,315,2.5,3.8,57,0.00,,,0.00,WUHU216HW,2013-02-05 23:33:00,
2013-02-05 17:38:00,25.7,12.5,29.94,NNW,338,2.0,3.4,57,0.00,,,0.00,WUHU216HW,2013-02-05 23:38:00,
2013-02-05 17:43:00,25.6,12.3,29.94,NNW,338,1.3,2.9,57,0.00,,,0.00,WUHU216HW,2013-02-05 23:43:00,
2013-02-05 17:48:00,25.4,12.6,29.94,WNW,293,0.9,2.7,58,0.00,,,0.00,WUHU216HW,2013-02-05 23:48:00,
2013-02-05 17:53:00,25.2,12.4,29.94,WNW,293,1.8,1.8,58,0.00,,,0.00,WUHU216HW,2013-02-05 23:53:00,
2013-02-05 17:58:00,24.8,12.2,29.95,NW,315,1.8,1.8,58,0.00,,,0.00,WUHU216HW,2013-02-05 23:58:00,
2013-02-05 18:03:00,24.5,11.8,29.95,NW,315,2.7,3.1,58,0.00,,,0.00,WUHU216HW,2013-02-06 00:03:00,
2013-02-05 18:08:00,23.9,11.6,29.95,NNW,338,3.1,3.1,59,0.00,,,0.00,WUHU216HW,2013-02-06 00:08:00,
2013-02-05 18:13:00,23.6,11.4,29.95,NW,315,2.7,3.1,59,0.00,,,0.00,WUHU216HW,2013-02-06 00:13:00,
2013-02-05 18:18:00,23.2,11.3,29.95,North,0,1.8,3.1,60,0.00,,,0.00,WUHU216HW,2013-02-06 00:18:00,
2013-02-05 18:23:00,23.0,11.2,29.95,NNW,338,3.8,3.8,60,0.00,,,0.00,WUHU216HW,2013-02-06 00:23:00,
2013-02-05 18:28:00,22.7,10.8,29.96,WNW,293,3.4,3.8,60,0.00,,,0.00,WUHU216HW,2013-02-06 00:28:00,
2013-02-05 18:33:00,22.7,11.2,29.96,WNW,293,2.5,3.4,61,0.00,,,0.00,WUHU216HW,2013-02-06 00:33:00,
2013-02-05 18:38:00,22.1,11.4,29.96,NW,315,4.0,4.3,63,0.00,,,0.00,WUHU216HW,2013-02-06 00:38:00,
2013-02-05 18:43:00,21.8,11.8,29.97,WSW,248,3.8,4.7,65,0.00,,,0.00,WUHU216HW,2013-02-06 00:43:00,
2013-02-05 18:48:00,21.4,11.8,29.97,NNW,338,2.0,4.7,66,0.00,,,0.00,WUHU216HW,2013-02-06 00:48:00,
2013-02-05 18:53:00,20.9,11.9,29.97,West,270,1.8,3.4,68,0.00,,,0.00,WUHU216HW,2013-02-06 00:53:00,
2013-02-05 18:58:00,20.5,11.9,29.97,WNW,293,2.0,3.8,69,0.00,,,0.00,WUHU216HW,2013-02-06 00:58:00,
2013-02-05 19:02:00,20.3,11.7,29.98,WNW,293,1.8,3.8,69,0.00,,,0.00,WUHU216HW,2013-02-06 01:02:00,
2013-02-05 19:07:00,20.0,11.3,29.98,WNW,293,2.2,2.2,69,0.00,,,0.00,WUHU216HW,2013-02-06 01:07:00,
2013-02-05 19:12:00,19.8,11.5,29.98,WNW,293,3.4,3.4,70,0.00,,,0.00,WUHU216HW,2013-02-06 01:12:00,
2013-02-05 19:17:00,19.6,12.0,29.99,WNW,293,4.5,4.5,72,0.00,,,0.00,WUHU216HW,2013-02-06 01:17:00,
2013-02-05 19:22:00,19.1,11.4,29.99,West,270,3.8,4.5,72,0.00,,,0.00,WUHU216HW,2013-02-06 01:22:00,
2013-02-05 19:27:00,18.4,10.8,29.99,WNW,293,4.0,4.5,72,0.00,,,0.00,WUHU216HW,2013-02-06 01:27:00,
2013-02-05 19:32:00,18.0,11.1,29.99,WNW,293,3.8,4.5,74,0.00,,,0.00,WUHU216HW,2013-02-06 01:32:00,
2013-02-05 19:37:00,18.2,11.8,29.99,West,270,4.0,4.3,76,0.00,,,0.00,WUHU216HW,2013-02-06 01:37:00,
2013-02-05 19:42:00,18.2,11.8,29.99,West,270,3.1,4.3,76,0.00,,,0.00,WUHU216HW,2013-02-06 01:42:00,
2013-02-05 19:47:00,17.8,10.9,29.99,WNW,293,2.9,3.8,74,0.00,,,0.00,WUHU216HW,2013-02-06 01:47:00,
2013-02-05 19:52:00,17.6,11.0,29.99,West,270,4.0,4.0,75,0.00,,,0.00,WUHU216HW,2013-02-06 01:52:00,
2013-02-05 19:57:00,17.5,11.4,29.99,WNW,293,3.8,4.0,77,0.00,,,0.00,WUHU216HW,2013-02-06 01:57:00,
2013-02-05 20:02:00,17.3,11.5,29.99,WNW,293,3.8,3.8,78,0.00,,,0.00,WUHU216HW,2013-02-06 02:02:00,
2013-02-05 20:07:00,17.1,11.3,29.99,WSW,248,4.0,4.5,78,0.00,,,0.00,WUHU216HW,2013-02-06 02:07:00,
2013-02-05 20:12:00,16.6,11.2,29.99,WSW,248,3.6,4.7,79,0.00,,,0.00,WUHU216HW,2013-02-06 02:12:00,
2013-02-05 20:17:00,16.2,10.8,30.00,WSW,248,3.6,4.7,79,0.00,,,0.00,WUHU216HW,2013-02-06 02:17:00,
2013-02-05 20:22:00,14.8,9.5,30.00,WSW,248,8.1,8.1,79,0.00,,,0.00,WUHU216HW,2013-02-06 02:22:00,
2013-02-05 20:27:00,14.4,9.9,30.00,WSW,248,6.3,8.1,82,0.00,,,0.00,WUHU216HW,2013-02-06 02:27:00,
2013-02-05 20:32:00,14.0,9.3,30.00,SW,225,7.8,7.8,81,0.00,,,0.00,WUHU216HW,2013-02-06 02:32:00,
2013-02-05 20:37:00,13.5,8.7,30.01,WSW,248,10.3,12.1,81,0.00,,,0.00,WUHU216HW,2013-02-06 02:37:00,
2013-02-05 20:42:00,13.3,8.6,30.02,WSW,248,10.5,13.4,81,0.00,,,0.00,WUHU216HW,2013-02-06 02:42:00,
2013-02-05 20:47:00,13.1,8.4,30.02,WSW,248,9.6,13.4,81,0.00,,,0.00,WUHU216HW,2013-02-06 02:47:00,
2013-02-05 20:52:00,12.8,8.0,30.01,WSW,248,7.4,12.1,81,0.00,,,0.00,WUHU216HW,2013-02-06 02:52:00,
2013-02-05 20:57:00,12.6,7.8,30.01,West,270,5.4,8.3,81,0.00,,,0.00,WUHU216HW,2013-02-06 02:57:00,
2013-02-05 21:02:00,12.6,7.8,30.01,WNW,293,2.7,7.6,81,0.00,,,0.00,WUHU216HW,2013-02-06 03:02:00,
2013-02-05 21:07:00,12.6,7.8,30.01,WSW,248,3.6,5.4,81,0.00,,,0.00,WUHU216HW,2013-02-06 03:07:00,
2013-02-05 21:12:00,12.1,7.3,30.01,SW,225,5.4,5.4,81,0.00,,,0.00,WUHU216HW,2013-02-06 03:12:00,
2013-02-05 21:17:00,11.5,7.0,30.02,SW,225,3.4,5.4,82,0.00,,,0.00,WUHU216HW,2013-02-06 03:17:00,
2013-02-05 21:22:00,11.7,7.5,30.02,WSW,248,4.3,5.4,83,0.00,,,0.00,WUHU216HW,2013-02-06 03:22:00,
2013-02-05 21:27:00,11.3,6.8,30.02,WSW,248,4.0,4.7,82,0.00,,,0.00,WUHU216HW,2013-02-06 03:27:00,
2013-02-05 21:32:00,11.2,6.7,30.02,WSW,248,3.4,4.7,82,0.00,,,0.00,WUHU216HW,2013-02-06 03:32:00,
2013-02-05 21:37:00,11.2,6.7,30.02,West,270,2.5,4.0,82,0.00,,,0.00,WUHU216HW,2013-02-06 03:37:00,
2013-02-05 21:42:00,11.3,6.8,30.03,WSW,248,2.7,2.7,82,0.00,,,0.00,WUHU216HW,2013-02-06 03:42:00,
2013-02-05 21:47:00,11.3,6.6,30.03,SW,225,1.1,2.7,81,0.00,,,0.00,WUHU216HW,2013-02-06 03:47:00,
2013-02-05 21:52:00,11.5,6.8,30.02,South,180,1.6,2.2,81,0.00,,,0.00,WUHU216HW,2013-02-06 03:52:00,
2013-02-05 21:57:00,11.3,6.6,30.02,SSE,158,0.7,2.0,81,0.00,,,0.00,WUHU216HW,2013-02-06 03:57:00,
2013-02-05 22:02:00,11.3,6.6,30.02,NE,45,0.0,2.0,81,0.00,,,0.00,WUHU216HW,2013-02-06 04:02:00,
2013-02-05 22:07:00,11.3,6.3,30.02,SSE,158,0.9,0.9,80,0.00,,,0.00,WUHU216HW,2013-02-06 04:07:00,
2013-02-05 22:12:00,11.0,5.7,30.02,SSW,203,3.4,3.4,79,0.00,,,0.00,WUHU216HW,2013-02-06 04:12:00,
2013-02-05 22:17:00,10.4,5.4,30.02,SSW,203,6.3,6.3,80,0.00,,,0.00,WUHU216HW,2013-02-06 04:17:00,
2013-02-05 22:22:00,9.7,5.1,30.02,SW,225,6.0,6.3,81,0.00,,,0.00,WUHU216HW,2013-02-06 04:22:00,
2013-02-05 22:27:00,9.5,5.4,30.02,SSW,203,5.4,6.3,83,0.00,,,0.00,WUHU216HW,2013-02-06 04:27:00,
2013-02-05 22:32:00,9.5,5.4,30.02,SW,225,6.3,6.3,83,0.00,,,0.00,WUHU216HW,2013-02-06 04:32:00,
2013-02-05 22:37:00,9.5,5.4,30.01,SW,225,5.4,6.3,83,0.00,,,0.00,WUHU216HW,2013-02-06 04:37:00,
2013-02-05 22:42:00,9.5,5.4,30.02,SW,225,4.3,5.6,83,0.00,,,0.00,WUHU216HW,2013-02-06 04:42:00,
2013-02-05 22:47:00,9.5,5.4,30.02,WSW,248,4.7,5.6,83,0.00,,,0.00,WUHU216HW,2013-02-06 04:47:00,
2013-02-05 22:52:00,9.4,5.0,30.01,WSW,248,3.6,4.7,82,0.00,,,0.00,WUHU216HW,2013-02-06 04:52:00,
2013-02-05 22:57:00,9.0,5.4,30.02,WSW,248,4.7,4.9,85,0.00,,,0.00,WUHU216HW,2013-02-06 04:57:00,
2013-02-05 23:00:00,9.0,5.7,30.01,SW,225,4.7,4.9,86,0.00,,,0.00,WUHU216HW,2013-02-06 05:00:00,
2013-02-05 23:05:00,9.4,5.9,30.01,SW,225,2.7,4.9,86,0.00,,,0.00,WUHU216HW,2013-02-06 05:05:00,
2013-02-05 23:10:00,9.2,5.6,30.01,SW,225,4.0,4.3,85,0.00,,,0.00,WUHU216HW,2013-02-06 05:10:00,
2013-02-05 23:15:00,9.2,5.6,30.02,SW,225,3.4,4.0,85,0.00,,,0.00,WUHU216HW,2013-02-06 05:15:00,
2013-02-05 23:20:00,9.0,5.4,30.01,SW,225,2.7,4.0,85,0.00,,,0.00,WUHU216HW,2013-02-06 05:20:00,
2013-02-05 23:25:00,8.8,5.2,30.02,WSW,248,3.8,3.8,85,0.00,,,0.00,WUHU216HW,2013-02-06 05:25:00,
2013-02-05 23:30:00,8.6,5.3,30.01,WSW,248,3.6,3.8,86,0.00,,,0.00,WUHU216HW,2013-02-06 05:30:00,
2013-02-05 23:35:00,8.3,4.4,30.02,WSW,248,5.6,6.0,84,0.00,,,0.00,WUHU216HW,2013-02-06 05:35:00,
2013-02-05 23:40:00,7.6,4.0,30.02,WSW,248,5.1,6.0,85,0.00,,,0.00,WUHU216HW,2013-02-06 05:40:00,
2013-02-05 23:45:00,7.6,4.0,30.02,WSW,248,4.7,5.6,85,0.00,,,0.00,WUHU216HW,2013-02-06 05:45:00,
2013-02-05 23:50:00,7.6,4.0,30.02,WSW,248,4.5,4.7,85,0.00,,,0.00,WUHU216HW,2013-02-06 05:50:00,
2013-02-05 23:55:00,7.2,3.3,30.02,WSW,248,6.3,6.3,84,0.00,,,0.00,WUHU216HW,2013-02-06 05:55:00,